sensor_id;sensor_type;location;lat;lon;timestamp;pressure;altitude;pressure_sealevel;temperature;humidity
73063;BME280;61230;46.328;19.972;2022-10-18T00:01:03;102149.34;;;8.78;92.32
73063;BME280;61230;46.328;19.972;2022-10-18T00:03:32;102143.25;;;8.77;92.36
73063;BME280;61230;46.328;19.972;2022-10-18T00:06:00;102144.53;;;8.70;92.65
73063;BME280;61230;46.328;19.972;2022-10-18T00:08:28;102143.78;;;8.68;92.87
73063;BME280;61230;46.328;19.972;2022-10-18T00:10:56;102150.31;;;8.61;93.08
73063;BME280;61230;46.328;19.972;2022-10-18T00:13:25;102140.66;;;8.46;93.04
73063;BME280;61230;46.328;19.972;2022-10-18T00:15:56;102140.34;;;8.36;93.17
73063;BME280;61230;46.328;19.972;2022-10-18T00:18:24;102143.19;;;8.32;92.90
73063;BME280;61230;46.328;19.972;2022-10-18T00:21:00;102135.28;;;8.16;93.47
73063;BME280;61230;46.328;19.972;2022-10-18T00:23:29;102131.97;;;8.13;94.69
73063;BME280;61230;46.328;19.972;2022-10-18T00:26:02;102127.72;;;8.27;94.09
73063;BME280;61230;46.328;19.972;2022-10-18T00:28:31;102129.41;;;8.28;94.56
73063;BME280;61230;46.328;19.972;2022-10-18T00:31:35;102130.69;;;8.37;94.18
73063;BME280;61230;46.328;19.972;2022-10-18T00:34:08;102125.44;;;8.37;92.73
73063;BME280;61230;46.328;19.972;2022-10-18T00:36:36;102127.63;;;8.29;93.27
73063;BME280;61230;46.328;19.972;2022-10-18T00:39:05;102120.75;;;8.10;94.16
73063;BME280;61230;46.328;19.972;2022-10-18T00:41:35;102124.06;;;8.14;93.54
73063;BME280;61230;46.328;19.972;2022-10-18T00:46:44;102123.69;;;8.04;94.08
73063;BME280;61230;46.328;19.972;2022-10-18T00:49:22;102113.09;;;8.06;94.04
73063;BME280;61230;46.328;19.972;2022-10-18T00:51:57;102107.00;;;7.90;95.73
73063;BME280;61230;46.328;19.972;2022-10-18T00:54:28;102112.41;;;7.87;98.20
73063;BME280;61230;46.328;19.972;2022-10-18T00:56:57;102113.09;;;8.06;96.40
73063;BME280;61230;46.328;19.972;2022-10-18T00:59:25;102112.03;;;8.10;95.33
73063;BME280;61230;46.328;19.972;2022-10-18T01:01:53;102107.69;;;8.09;94.32
73063;BME280;61230;46.328;19.972;2022-10-18T01:04:21;102099.84;;;8.09;93.63
73063;BME280;61230;46.328;19.972;2022-10-18T01:06:54;102099.94;;;8.07;93.65
73063;BME280;61230;46.328;19.972;2022-10-18T01:09:44;102105.69;;;8.14;93.77
73063;BME280;61230;46.328;19.972;2022-10-18T01:12:28;102103.31;;;8.09;93.83
73063;BME280;61230;46.328;19.972;2022-10-18T01:18:29;102097.91;;;7.97;92.48
73063;BME280;61230;46.328;19.972;2022-10-18T01:21:40;102091.53;;;8.01;92.60
73063;BME280;61230;46.328;19.972;2022-10-18T01:24:53;102094.00;;;7.88;90.64
73063;BME280;61230;46.328;19.972;2022-10-18T01:33:43;102089.09;;;7.98;93.37
73063;BME280;61230;46.328;19.972;2022-10-18T01:36:23;102080.63;;;7.93;93.42
73063;BME280;61230;46.328;19.972;2022-10-18T01:38:54;102075.91;;;7.99;93.15
73063;BME280;61230;46.328;19.972;2022-10-18T01:41:24;102075.16;;;7.97;92.48
73063;BME280;61230;46.328;19.972;2022-10-18T01:43:57;102073.44;;;7.81;92.52
73063;BME280;61230;46.328;19.972;2022-10-18T01:46:27;102067.44;;;7.79;92.78
73063;BME280;61230;46.328;19.972;2022-10-18T01:48:55;102066.31;;;7.67;92.74
73063;BME280;61230;46.328;19.972;2022-10-18T01:51:24;102061.00;;;7.69;93.23
73063;BME280;61230;46.328;19.972;2022-10-18T01:53:53;102061.41;;;7.61;93.16
73063;BME280;61230;46.328;19.972;2022-10-18T01:56:36;102060.03;;;7.54;93.13
73063;BME280;61230;46.328;19.972;2022-10-18T02:02:55;102060.31;;;7.65;92.89
73063;BME280;61230;46.328;19.972;2022-10-18T02:10:40;102050.19;;;7.75;91.46
73063;BME280;61230;46.328;19.972;2022-10-18T02:13:10;102048.66;;;7.86;90.60
73063;BME280;61230;46.328;19.972;2022-10-18T02:15:42;102045.12;;;7.87;90.05
73063;BME280;61230;46.328;19.972;2022-10-18T02:18:22;102046.81;;;8.04;89.43
73063;BME280;61230;46.328;19.972;2022-10-18T02:20:52;102057.13;;;8.07;89.23
73063;BME280;61230;46.328;19.972;2022-10-18T02:23:22;102043.87;;;7.94;88.60
73063;BME280;61230;46.328;19.972;2022-10-18T02:25:52;102051.97;;;7.90;89.01
73063;BME280;61230;46.328;19.972;2022-10-18T02:28:20;102055.81;;;8.00;88.84
73063;BME280;61230;46.328;19.972;2022-10-18T02:33:55;102054.63;;;8.05;89.44
73063;BME280;61230;46.328;19.972;2022-10-18T02:36:50;102048.53;;;8.05;89.78
73063;BME280;61230;46.328;19.972;2022-10-18T02:39:23;102058.59;;;7.97;89.32
73063;BME280;61230;46.328;19.972;2022-10-18T02:41:53;102055.88;;;7.83;89.44
73063;BME280;61230;46.328;19.972;2022-10-18T02:44:21;102051.72;;;7.79;89.27
73063;BME280;61230;46.328;19.972;2022-10-18T02:46:49;102059.03;;;7.72;89.99
73063;BME280;61230;46.328;19.972;2022-10-18T02:49:17;102052.28;;;7.68;90.86
73063;BME280;61230;46.328;19.972;2022-10-18T02:51:45;102052.78;;;7.59;90.76
73063;BME280;61230;46.328;19.972;2022-10-18T02:54:12;102051.66;;;7.47;90.67
73063;BME280;61230;46.328;19.972;2022-10-18T02:56:40;102033.19;;;7.33;91.06
73063;BME280;61230;46.328;19.972;2022-10-18T02:59:07;102044.91;;;7.43;91.53
73063;BME280;61230;46.328;19.972;2022-10-18T03:01:35;102049.03;;;7.47;90.95
73063;BME280;61230;46.328;19.972;2022-10-18T03:04:03;102045.50;;;7.48;90.87
73063;BME280;61230;46.328;19.972;2022-10-18T03:06:32;102042.59;;;7.37;91.04
73063;BME280;61230;46.328;19.972;2022-10-18T03:09:04;102043.53;;;7.36;90.97
73063;BME280;61230;46.328;19.972;2022-10-18T03:11:32;102047.63;;;7.25;91.40
73063;BME280;61230;46.328;19.972;2022-10-18T03:13:59;102045.25;;;7.20;91.09
73063;BME280;61230;46.328;19.972;2022-10-18T03:16:26;102041.69;;;7.21;91.14
73063;BME280;61230;46.328;19.972;2022-10-18T03:18:54;102047.88;;;7.20;90.90
73063;BME280;61230;46.328;19.972;2022-10-18T03:21:21;102052.47;;;7.15;91.42
73063;BME280;61230;46.328;19.972;2022-10-18T03:23:49;102052.47;;;7.15;91.14
73063;BME280;61230;46.328;19.972;2022-10-18T03:26:17;102055.59;;;7.06;91.10
73063;BME280;61230;46.328;19.972;2022-10-18T03:28:44;102058.50;;;6.83;91.20
73063;BME280;61230;46.328;19.972;2022-10-18T03:31:12;102056.44;;;6.72;91.48
73063;BME280;61230;46.328;19.972;2022-10-18T03:33:39;102057.50;;;6.68;90.91
73063;BME280;61230;46.328;19.972;2022-10-18T03:36:07;102059.41;;;6.65;91.13
73063;BME280;61230;46.328;19.972;2022-10-18T03:38:34;102060.56;;;6.59;91.17
73063;BME280;61230;46.328;19.972;2022-10-18T03:41:02;102060.19;;;6.50;91.72
73063;BME280;61230;46.328;19.972;2022-10-18T03:43:29;102061.69;;;6.54;91.77
73063;BME280;61230;46.328;19.972;2022-10-18T03:45:57;102069.06;;;6.46;92.04
73063;BME280;61230;46.328;19.972;2022-10-18T03:48:24;102066.28;;;6.31;92.81
73063;BME280;61230;46.328;19.972;2022-10-18T03:50:52;102054.81;;;6.34;92.51
73063;BME280;61230;46.328;19.972;2022-10-18T03:53:19;102068.88;;;6.31;92.93
73063;BME280;61230;46.328;19.972;2022-10-18T03:55:54;102059.81;;;6.38;92.62
73063;BME280;61230;46.328;19.972;2022-10-18T03:58:23;102063.28;;;6.39;92.52
73063;BME280;61230;46.328;19.972;2022-10-18T04:00:51;102057.56;;;6.50;91.92
73063;BME280;61230;46.328;19.972;2022-10-18T04:03:21;102063.00;;;6.45;91.28
73063;BME280;61230;46.328;19.972;2022-10-18T04:05:49;102060.53;;;6.42;91.53
73063;BME280;61230;46.328;19.972;2022-10-18T04:08:17;102060.03;;;6.53;91.48
73063;BME280;61230;46.328;19.972;2022-10-18T04:10:45;102062.84;;;6.48;90.96
73063;BME280;61230;46.328;19.972;2022-10-18T04:13:12;102057.41;;;6.53;90.96
73063;BME280;61230;46.328;19.972;2022-10-18T04:15:40;102056.59;;;6.69;90.82
73063;BME280;61230;46.328;19.972;2022-10-18T04:18:08;102051.81;;;6.77;90.61
73063;BME280;61230;46.328;19.972;2022-10-18T04:20:35;102057.25;;;6.90;90.86
73063;BME280;61230;46.328;19.972;2022-10-18T04:23:02;102052.56;;;6.97;90.64
73063;BME280;61230;46.328;19.972;2022-10-18T04:25:30;102045.94;;;7.07;89.88
73063;BME280;61230;46.328;19.972;2022-10-18T04:27:58;102047.41;;;7.12;89.61
73063;BME280;61230;46.328;19.972;2022-10-18T04:30:25;102043.66;;;7.18;89.54
73063;BME280;61230;46.328;19.972;2022-10-18T04:32:53;102042.47;;;7.23;89.60
73063;BME280;61230;46.328;19.972;2022-10-18T04:35:20;102037.25;;;7.23;89.21
73063;BME280;61230;46.328;19.972;2022-10-18T04:37:50;102037.44;;;7.36;89.10
73063;BME280;61230;46.328;19.972;2022-10-18T04:40:18;102045.72;;;7.44;88.50
73063;BME280;61230;46.328;19.972;2022-10-18T04:42:48;102041.13;;;7.49;87.94
73063;BME280;61230;46.328;19.972;2022-10-18T04:45:16;102036.47;;;7.54;87.62
73063;BME280;61230;46.328;19.972;2022-10-18T04:47:44;102034.72;;;7.55;87.54
73063;BME280;61230;46.328;19.972;2022-10-18T04:50:11;102032.16;;;7.53;87.67
73063;BME280;61230;46.328;19.972;2022-10-18T04:52:40;102038.16;;;7.55;87.64
73063;BME280;61230;46.328;19.972;2022-10-18T04:55:07;102029.91;;;7.63;87.80
73063;BME280;61230;46.328;19.972;2022-10-18T04:57:35;102027.72;;;7.71;87.35
73063;BME280;61230;46.328;19.972;2022-10-18T05:00:03;102028.41;;;7.74;87.09
73063;BME280;61230;46.328;19.972;2022-10-18T05:02:31;102027.03;;;7.83;87.04
73063;BME280;61230;46.328;19.972;2022-10-18T05:04:59;102025.78;;;7.90;87.07
73063;BME280;61230;46.328;19.972;2022-10-18T05:07:26;102026.19;;;7.98;86.71
73063;BME280;61230;46.328;19.972;2022-10-18T05:09:56;102023.34;;;8.02;86.38
73063;BME280;61230;46.328;19.972;2022-10-18T05:12:23;102029.16;;;8.07;86.24
73063;BME280;61230;46.328;19.972;2022-10-18T05:14:51;102027.28;;;8.09;86.08
73063;BME280;61230;46.328;19.972;2022-10-18T05:17:18;102025.19;;;8.16;86.00
73063;BME280;61230;46.328;19.972;2022-10-18T05:19:46;102030.84;;;8.24;85.79
73063;BME280;61230;46.328;19.972;2022-10-18T05:22:13;102026.19;;;8.29;85.66
73063;BME280;61230;46.328;19.972;2022-10-18T05:24:41;102024.75;;;8.24;86.08
73063;BME280;61230;46.328;19.972;2022-10-18T05:27:08;102031.84;;;8.22;86.16
73063;BME280;61230;46.328;19.972;2022-10-18T05:29:37;102026.87;;;8.17;86.54
73063;BME280;61230;46.328;19.972;2022-10-18T05:32:05;102030.25;;;8.19;86.19
73063;BME280;61230;46.328;19.972;2022-10-18T05:34:32;102032.94;;;8.18;86.17
73063;BME280;61230;46.328;19.972;2022-10-18T05:37:00;102033.97;;;8.15;86.37
73063;BME280;61230;46.328;19.972;2022-10-18T05:39:28;102031.16;;;8.18;86.48
73063;BME280;61230;46.328;19.972;2022-10-18T05:41:56;102029.59;;;8.31;86.08
73063;BME280;61230;46.328;19.972;2022-10-18T05:44:24;102023.00;;;8.40;85.77
73063;BME280;61230;46.328;19.972;2022-10-18T05:46:52;102026.09;;;8.46;85.56
73063;BME280;61230;46.328;19.972;2022-10-18T05:49:20;102018.62;;;8.54;85.39
73063;BME280;61230;46.328;19.972;2022-10-18T05:51:47;102018.66;;;8.68;84.95
73063;BME280;61230;46.328;19.972;2022-10-18T05:54:15;102010.53;;;8.73;84.98
73063;BME280;61230;46.328;19.972;2022-10-18T05:56:45;102013.44;;;8.83;84.75
73063;BME280;61230;46.328;19.972;2022-10-18T05:59:13;102013.75;;;8.92;84.40
73063;BME280;61230;46.328;19.972;2022-10-18T06:01:41;102019.50;;;8.99;84.35
73063;BME280;61230;46.328;19.972;2022-10-18T06:04:09;102015.66;;;9.04;84.23
73063;BME280;61230;46.328;19.972;2022-10-18T06:06:37;102012.56;;;9.12;84.12
73063;BME280;61230;46.328;19.972;2022-10-18T06:09:06;102024.78;;;9.13;84.37
73063;BME280;61230;46.328;19.972;2022-10-18T06:11:35;102013.59;;;9.09;85.06
73063;BME280;61230;46.328;19.972;2022-10-18T06:14:03;102028.16;;;9.15;84.75
73063;BME280;61230;46.328;19.972;2022-10-18T06:16:31;102020.19;;;9.31;83.92
73063;BME280;61230;46.328;19.972;2022-10-18T06:18:59;102023.81;;;9.28;83.53
73063;BME280;61230;46.328;19.972;2022-10-18T06:21:27;102026.56;;;9.41;83.05
73063;BME280;61230;46.328;19.972;2022-10-18T06:23:56;102026.69;;;9.39;82.96
73063;BME280;61230;46.328;19.972;2022-10-18T06:26:26;102031.62;;;9.58;82.19
73063;BME280;61230;46.328;19.972;2022-10-18T06:28:54;102034.56;;;9.39;82.72
73063;BME280;61230;46.328;19.972;2022-10-18T06:31:21;102048.44;;;9.55;82.38
73063;BME280;61230;46.328;19.972;2022-10-18T06:33:49;102039.34;;;9.47;82.75
73063;BME280;61230;46.328;19.972;2022-10-18T06:36:18;102044.75;;;9.72;81.81
73063;BME280;61230;46.328;19.972;2022-10-18T06:38:48;102049.16;;;9.71;81.61
73063;BME280;61230;46.328;19.972;2022-10-18T06:41:17;102045.88;;;9.82;81.39
73063;BME280;61230;46.328;19.972;2022-10-18T06:43:49;102047.56;;;9.83;81.48
73063;BME280;61230;46.328;19.972;2022-10-18T06:46:17;102056.25;;;10.26;80.46
73063;BME280;61230;46.328;19.972;2022-10-18T06:48:46;102052.25;;;10.47;79.28
73063;BME280;61230;46.328;19.972;2022-10-18T06:51:13;102050.78;;;10.56;79.37
73063;BME280;61230;46.328;19.972;2022-10-18T06:53:41;102056.41;;;10.76;78.84
73063;BME280;61230;46.328;19.972;2022-10-18T06:56:29;102051.97;;;11.29;83.99
73063;BME280;61230;46.328;19.972;2022-10-18T06:58:57;102057.31;;;11.65;82.27
73063;BME280;61230;46.328;19.972;2022-10-18T07:01:29;102057.84;;;11.70;77.22
73063;BME280;61230;46.328;19.972;2022-10-18T07:03:57;102050.56;;;11.61;75.01
73063;BME280;61230;46.328;19.972;2022-10-18T07:06:24;102046.75;;;11.78;75.62
73063;BME280;61230;46.328;19.972;2022-10-18T07:08:52;102046.53;;;11.81;74.58
73063;BME280;61230;46.328;19.972;2022-10-18T07:11:23;102045.59;;;11.94;74.52
73063;BME280;61230;46.328;19.972;2022-10-18T07:13:52;102045.97;;;12.01;74.54
73063;BME280;61230;46.328;19.972;2022-10-18T07:16:20;102044.59;;;12.08;72.73
73063;BME280;61230;46.328;19.972;2022-10-18T07:18:49;102039.47;;;12.18;73.16
73063;BME280;61230;46.328;19.972;2022-10-18T07:21:20;102039.87;;;12.24;73.03
73063;BME280;61230;46.328;19.972;2022-10-18T07:23:49;102029.38;;;12.35;72.65
73063;BME280;61230;46.328;19.972;2022-10-18T07:28:53;102041.50;;;12.61;72.13
73063;BME280;61230;46.328;19.972;2022-10-18T07:31:22;102026.41;;;12.75;71.64
73063;BME280;61230;46.328;19.972;2022-10-18T07:33:51;102031.41;;;12.90;71.31
73063;BME280;61230;46.328;19.972;2022-10-18T07:36:19;102020.63;;;13.04;69.68
73063;BME280;61230;46.328;19.972;2022-10-18T07:38:48;102019.47;;;13.19;69.77
73063;BME280;61230;46.328;19.972;2022-10-18T07:41:18;102013.22;;;13.32;68.41
73063;BME280;61230;46.328;19.972;2022-10-18T07:43:48;102018.28;;;13.46;66.05
73063;BME280;61230;46.328;19.972;2022-10-18T07:46:18;102017.22;;;13.59;66.33
73063;BME280;61230;46.328;19.972;2022-10-18T07:48:52;102013.22;;;13.76;66.46
73063;BME280;61230;46.328;19.972;2022-10-18T07:51:19;102011.28;;;13.89;64.72
73063;BME280;61230;46.328;19.972;2022-10-18T07:53:47;102014.16;;;13.97;64.60
73063;BME280;61230;46.328;19.972;2022-10-18T07:56:18;102011.94;;;14.13;64.12
73063;BME280;61230;46.328;19.972;2022-10-18T07:58:50;102012.63;;;14.26;63.88
73063;BME280;61230;46.328;19.972;2022-10-18T08:01:21;102007.72;;;14.33;62.52
73063;BME280;61230;46.328;19.972;2022-10-18T08:03:50;102012.13;;;14.44;62.00
73063;BME280;61230;46.328;19.972;2022-10-18T08:06:19;102019.87;;;14.56;61.75
73063;BME280;61230;46.328;19.972;2022-10-18T08:08:47;102005.88;;;14.65;60.94
73063;BME280;61230;46.328;19.972;2022-10-18T08:11:17;102005.69;;;14.78;60.88
73063;BME280;61230;46.328;19.972;2022-10-18T08:13:45;102005.63;;;14.89;60.22
73063;BME280;61230;46.328;19.972;2022-10-18T08:16:18;101998.72;;;14.98;59.54
73063;BME280;61230;46.328;19.972;2022-10-18T08:18:47;102009.34;;;15.07;58.65
73063;BME280;61230;46.328;19.972;2022-10-18T08:21:15;102003.78;;;15.10;58.12
73063;BME280;61230;46.328;19.972;2022-10-18T08:23:43;101993.84;;;15.23;58.56
73063;BME280;61230;46.328;19.972;2022-10-18T08:26:14;101992.31;;;15.30;57.91
73063;BME280;61230;46.328;19.972;2022-10-18T08:28:42;101997.53;;;15.41;56.97
73063;BME280;61230;46.328;19.972;2022-10-18T08:31:20;102000.00;;;15.54;56.98
73063;BME280;61230;46.328;19.972;2022-10-18T08:33:48;101990.38;;;15.63;56.94
73063;BME280;61230;46.328;19.972;2022-10-18T08:36:17;101993.91;;;15.73;57.10
73063;BME280;61230;46.328;19.972;2022-10-18T08:38:46;101993.66;;;15.85;56.30
73063;BME280;61230;46.328;19.972;2022-10-18T08:44:29;101990.47;;;16.01;55.09
73063;BME280;61230;46.328;19.972;2022-10-18T08:47:03;101991.50;;;16.29;58.51
73063;BME280;61230;46.328;19.972;2022-10-18T08:49:44;101981.44;;;16.51;57.94
73063;BME280;61230;46.328;19.972;2022-10-18T08:52:34;101976.81;;;16.73;59.00
73063;BME280;61230;46.328;19.972;2022-10-18T08:55:16;101974.16;;;16.73;53.89
73063;BME280;61230;46.328;19.972;2022-10-18T08:57:47;101970.53;;;16.74;53.76
73063;BME280;61230;46.328;19.972;2022-10-18T09:00:28;101968.44;;;16.77;53.72
73063;BME280;61230;46.328;19.972;2022-10-18T09:22:17;101947.69;;;17.27;51.82
73063;BME280;61230;46.328;19.972;2022-10-18T09:25:12;101948.75;;;17.34;51.75
73063;BME280;61230;46.328;19.972;2022-10-18T09:27:49;101953.09;;;17.35;51.00
73063;BME280;61230;46.328;19.972;2022-10-18T09:33:43;101935.13;;;17.56;50.88
73063;BME280;61230;46.328;19.972;2022-10-18T09:36:17;101930.94;;;17.71;51.75
73063;BME280;61230;46.328;19.972;2022-10-18T09:38:53;101935.63;;;17.87;51.58
73063;BME280;61230;46.328;19.972;2022-10-18T09:41:44;101932.47;;;17.92;50.26
73063;BME280;61230;46.328;19.972;2022-10-18T09:44:19;101930.69;;;18.10;50.22
73063;BME280;61230;46.328;19.972;2022-10-18T09:46:52;101934.56;;;18.15;48.48
73063;BME280;61230;46.328;19.972;2022-10-18T09:49:26;101932.88;;;18.14;47.61
73063;BME280;61230;46.328;19.972;2022-10-18T09:51:55;101921.06;;;18.17;47.77
73063;BME280;61230;46.328;19.972;2022-10-18T09:54:37;101921.97;;;18.25;48.24
73063;BME280;61230;46.328;19.972;2022-10-18T09:57:36;101911.53;;;18.32;48.02
73063;BME280;61230;46.328;19.972;2022-10-18T10:00:14;101911.25;;;18.35;47.02
73063;BME280;61230;46.328;19.972;2022-10-18T10:02:43;101904.69;;;18.47;46.96
73063;BME280;61230;46.328;19.972;2022-10-18T10:05:14;101901.03;;;18.48;46.49
73063;BME280;61230;46.328;19.972;2022-10-18T10:07:46;101899.97;;;18.59;45.31
73063;BME280;61230;46.328;19.972;2022-10-18T10:10:23;101890.19;;;18.67;45.12
73063;BME280;61230;46.328;19.972;2022-10-18T10:13:14;101899.56;;;18.79;44.50
73063;BME280;61230;46.328;19.972;2022-10-18T10:15:59;101891.06;;;18.76;44.27
73063;BME280;61230;46.328;19.972;2022-10-18T10:18:32;101895.97;;;18.88;44.33
73063;BME280;61230;46.328;19.972;2022-10-18T10:21:04;101889.16;;;18.94;44.30
73063;BME280;61230;46.328;19.972;2022-10-18T10:23:38;101886.69;;;19.01;43.38
73063;BME280;61230;46.328;19.972;2022-10-18T10:26:27;101881.88;;;19.04;42.76
73063;BME280;61230;46.328;19.972;2022-10-18T10:28:55;101869.34;;;19.05;42.37
73063;BME280;61230;46.328;19.972;2022-10-18T10:36:52;101879.22;;;19.46;42.07
73063;BME280;61230;46.328;19.972;2022-10-18T10:39:22;101872.91;;;19.55;41.52
73063;BME280;61230;46.328;19.972;2022-10-18T10:41:56;101871.56;;;19.59;40.24
73063;BME280;61230;46.328;19.972;2022-10-18T10:44:28;101857.75;;;19.64;40.05
73063;BME280;61230;46.328;19.972;2022-10-18T10:46:57;101856.72;;;19.73;39.56
73063;BME280;61230;46.328;19.972;2022-10-18T10:49:38;101854.56;;;19.68;38.19
73063;BME280;61230;46.328;19.972;2022-10-18T10:52:17;101842.38;;;19.74;37.76
73063;BME280;61230;46.328;19.972;2022-10-18T10:54:55;101836.56;;;19.86;37.99
73063;BME280;61230;46.328;19.972;2022-10-18T10:57:46;101834.03;;;19.93;37.63
73063;BME280;61230;46.328;19.972;2022-10-18T11:00:37;101831.03;;;20.04;37.38
73063;BME280;61230;46.328;19.972;2022-10-18T11:05:55;101820.88;;;19.99;35.87
73063;BME280;61230;46.328;19.972;2022-10-18T11:08:27;101813.81;;;20.06;35.93
73063;BME280;61230;46.328;19.972;2022-10-18T11:14:26;101807.47;;;20.16;35.65
73063;BME280;61230;46.328;19.972;2022-10-18T11:19:57;101794.47;;;20.29;35.03
73063;BME280;61230;46.328;19.972;2022-10-18T11:22:31;101798.66;;;20.31;34.55
73063;BME280;61230;46.328;19.972;2022-10-18T11:25:03;101784.09;;;20.34;35.99
73063;BME280;61230;46.328;19.972;2022-10-18T11:27:35;101792.75;;;20.44;35.94
73063;BME280;61230;46.328;19.972;2022-10-18T11:30:34;101782.56;;;20.39;34.96
73063;BME280;61230;46.328;19.972;2022-10-18T11:40:17;101770.44;;;20.68;35.45
73063;BME280;61230;46.328;19.972;2022-10-18T11:43:13;101765.25;;;20.74;35.87
73063;BME280;61230;46.328;19.972;2022-10-18T11:46:08;101756.72;;;20.71;35.72
73063;BME280;61230;46.328;19.972;2022-10-18T11:55:01;101741.72;;;20.61;35.28
73063;BME280;61230;46.328;19.972;2022-10-18T11:57:43;101736.81;;;20.73;34.79
73063;BME280;61230;46.328;19.972;2022-10-18T12:00:33;101738.31;;;20.76;35.07
73063;BME280;61230;46.328;19.972;2022-10-18T12:05:38;101719.19;;;20.87;36.01
73063;BME280;61230;46.328;19.972;2022-10-18T12:08:12;101720.22;;;20.86;35.43
73063;BME280;61230;46.328;19.972;2022-10-18T12:10:43;101707.81;;;20.85;35.42
73063;BME280;61230;46.328;19.972;2022-10-18T12:13:38;101711.03;;;20.80;34.29
73063;BME280;61230;46.328;19.972;2022-10-18T12:16:08;101704.75;;;20.65;34.68
73063;BME280;61230;46.328;19.972;2022-10-18T12:18:51;101713.44;;;20.67;34.57
73063;BME280;61230;46.328;19.972;2022-10-18T12:21:22;101704.50;;;20.83;34.54
73063;BME280;61230;46.328;19.972;2022-10-18T12:23:54;101706.16;;;20.84;34.31
73063;BME280;61230;46.328;19.972;2022-10-18T12:26:23;101701.28;;;20.87;34.20
73063;BME280;61230;46.328;19.972;2022-10-18T12:31:51;101694.00;;;20.73;32.91
73063;BME280;61230;46.328;19.972;2022-10-18T12:37:12;101694.31;;;20.78;33.26
73063;BME280;61230;46.328;19.972;2022-10-18T12:39:50;101689.78;;;20.79;33.23
73063;BME280;61230;46.328;19.972;2022-10-18T12:42:47;101675.94;;;20.75;33.25
73063;BME280;61230;46.328;19.972;2022-10-18T12:45:21;101680.28;;;20.76;33.62
73063;BME280;61230;46.328;19.972;2022-10-18T12:47:50;101685.00;;;20.74;32.93
73063;BME280;61230;46.328;19.972;2022-10-18T12:50:29;101676.78;;;20.76;33.84
73063;BME280;61230;46.328;19.972;2022-10-18T12:53:18;101671.25;;;20.77;32.72
73063;BME280;61230;46.328;19.972;2022-10-18T12:55:50;101668.16;;;20.66;32.30
73063;BME280;61230;46.328;19.972;2022-10-18T12:58:23;101657.91;;;20.69;33.68
73063;BME280;61230;46.328;19.972;2022-10-18T13:00:52;101661.69;;;20.52;33.92
73063;BME280;61230;46.328;19.972;2022-10-18T13:05:58;101645.69;;;20.44;33.96
73063;BME280;61230;46.328;19.972;2022-10-18T13:08:40;101637.06;;;20.34;34.31
73063;BME280;61230;46.328;19.972;2022-10-18T13:22:28;101628.53;;;19.83;35.53
73063;BME280;61230;46.328;19.972;2022-10-18T13:27:44;101618.03;;;19.74;36.41
73063;BME280;61230;46.328;19.972;2022-10-18T13:30:40;101620.88;;;19.72;36.09
73063;BME280;61230;46.328;19.972;2022-10-18T13:33:33;101622.03;;;19.70;37.13
73063;BME280;61230;46.328;19.972;2022-10-18T13:41:25;101604.19;;;19.62;37.77
73063;BME280;61230;46.328;19.972;2022-10-18T13:44:09;101602.69;;;19.60;38.06
73063;BME280;61230;46.328;19.972;2022-10-18T13:49:30;101598.38;;;19.50;38.78
73063;BME280;61230;46.328;19.972;2022-10-18T14:00:53;101579.34;;;19.37;39.86
73063;BME280;61230;46.328;19.972;2022-10-18T14:03:41;101582.87;;;19.38;39.69
73063;BME280;61230;46.328;19.972;2022-10-18T14:06:35;101581.88;;;19.31;40.31
73063;BME280;61230;46.328;19.972;2022-10-18T14:09:16;101570.53;;;19.29;40.13
73063;BME280;61230;46.328;19.972;2022-10-18T14:12:39;101572.69;;;19.25;39.78
73063;BME280;61230;46.328;19.972;2022-10-18T14:15:22;101568.03;;;19.19;39.81
73063;BME280;61230;46.328;19.972;2022-10-18T14:20:42;101553.72;;;19.12;40.08
73063;BME280;61230;46.328;19.972;2022-10-18T14:23:36;101548.84;;;19.08;40.60
73063;BME280;61230;46.328;19.972;2022-10-18T14:26:13;101547.34;;;19.05;40.08
73063;BME280;61230;46.328;19.972;2022-10-18T14:28:42;101543.19;;;19.03;40.27
73063;BME280;61230;46.328;19.972;2022-10-18T14:31:27;101535.88;;;18.97;40.49
73063;BME280;61230;46.328;19.972;2022-10-18T14:33:56;101544.19;;;18.93;40.90
73063;BME280;61230;46.328;19.972;2022-10-18T14:36:38;101543.53;;;18.91;40.73
73063;BME280;61230;46.328;19.972;2022-10-18T14:39:17;101540.69;;;18.93;39.97
73063;BME280;61230;46.328;19.972;2022-10-18T14:41:50;101534.38;;;18.86;39.33
73063;BME280;61230;46.328;19.972;2022-10-18T14:44:23;101534.53;;;18.84;39.41
73063;BME280;61230;46.328;19.972;2022-10-18T14:49:22;101535.03;;;18.72;39.99
73063;BME280;61230;46.328;19.972;2022-10-18T14:51:51;101535.69;;;18.66;40.64
73063;BME280;61230;46.328;19.972;2022-10-18T14:54:27;101532.84;;;18.59;40.61
73063;BME280;61230;46.328;19.972;2022-10-18T14:56:59;101521.84;;;18.54;40.58
73063;BME280;61230;46.328;19.972;2022-10-18T14:59:30;101519.84;;;18.48;41.00
73063;BME280;61230;46.328;19.972;2022-10-18T15:02:00;101523.97;;;18.43;40.77
73063;BME280;61230;46.328;19.972;2022-10-18T15:04:29;101523.12;;;18.34;41.31
73063;BME280;61230;46.328;19.972;2022-10-18T15:07:05;101527.78;;;18.24;41.39
73063;BME280;61230;46.328;19.972;2022-10-18T15:09:34;101519.91;;;18.14;41.50
73063;BME280;61230;46.328;19.972;2022-10-18T15:12:04;101519.25;;;18.04;41.91
73063;BME280;61230;46.328;19.972;2022-10-18T15:14:33;101516.69;;;17.95;42.36
73063;BME280;61230;46.328;19.972;2022-10-18T15:17:06;101522.31;;;17.84;43.04
73063;BME280;61230;46.328;19.972;2022-10-18T15:19:37;101511.97;;;17.72;43.39
73063;BME280;61230;46.328;19.972;2022-10-18T15:22:09;101515.06;;;17.60;43.91